Jpo Gemini — A8VF7 — position and weather

sailwx.info

Track history (hours):
 
Tides and Currents Weather Stations Pressure Air Temp Water Temp Dewpoint Dewpoint Depression Visibility Wind Speed Wind Dir Waves Ship Positions

Jpo Gemini

Last reported at 2017-Jan-19 03:33 UTC. Time now 2017-Jan-20 05:53 UTC.
Position N 35°56' W 005°47'.

Length 207 m; draft 10.8 m.

Type: Cargo ship. MMSI: 636091995.

Date/timePositionNaut miles runAvg speedWind from/ knotsBaromVisibWave heightAir tempDewpointWater temp
2017-Jan-19 03:33N 35°56' W 005°47'1717.1
2017-Jan-19 02:33N 36°00' W 005°27'9 0.3
2017-Jan-17 23:32N 36°09' W 005°26'1 0.7
2017-Jan-17 22:33N 36°09' W 005°25'2 2.1
2017-Jan-17 21:33N 36°10' W 005°23'0 0.0
2017-Jan-17 09:33N 36°10' W 005°23'0 0.0
2017-Jan-17 08:21N 36°10' W 005°23'0 0.0
2017-Jan-17 07:33N 36°10' W 005°23'0 0.0
2017-Jan-17 06:27N 36°10' W 005°23'0 0.1
2017-Jan-17 05:33N 36°10' W 005°23'0 0.0
2017-Jan-17 04:33N 36°10' W 005°23'0 0.0
2017-Jan-17 03:33N 36°10' W 005°23'0 0.1
2017-Jan-17 02:33N 36°10' W 005°23'0 0.0
2017-Jan-17 01:09N 36°10' W 005°23'0 0.1
2017-Jan-17 00:33N 36°10' W 005°23'0 0.0
2017-Jan-16 21:33N 36°10' W 005°23'0 0.0
2017-Jan-16 16:09N 36°10' W 005°23'  
2017-Jan-12 17:30N 35°55' W 005°35'1411.1
2017-Jan-12 16:14N 35°52' W 005°52'  
2017-Jan-10 11:16N 29°45' W 012°14'6 8.9
2017-Jan-10 10:33N 29°40' W 012°18'9 9.0
2017-Jan-10 09:33N 29°32' W 012°24'9 9.1
2017-Jan-10 08:32N 29°25' W 012°30'10 9.2
2017-Jan-10 07:24N 29°17' W 012°37'8 9.1
2017-Jan-10 06:30N 29°10' W 012°43'47 9.3
2017-Jan-10 01:28N 28°32' W 013°13'12 9.7
2017-Jan-10 00:14N 28°22' W 013°21'7 9.9
2017-Jan-09 23:32N 28°16' W 013°26'10 9.9
2017-Jan-09 22:33N 28°08' W 013°32'10 9.9
2017-Jan-09 21:34N 28°00' W 013°39'10 9.7
2017-Jan-09 20:33N 27°52' W 013°45'9 9.4
2017-Jan-09 19:34N 27°44' W 013°50'9 9.2
2017-Jan-09 18:33N 27°36' W 013°56'9 9.3
2017-Jan-09 17:33N 27°29' W 014°02'10 9.7
2017-Jan-09 16:32N 27°21' W 014°08'10 9.8
2017-Jan-09 15:33N 27°12' W 014°14'1010.0
2017-Jan-09 14:34N 27°04' W 014°20'1010.2
2017-Jan-09 13:33N 26°55' W 014°26'1110.3
2017-Jan-09 12:31N 26°46' W 014°32'1010.2
2017-Jan-09 11:33N 26°38' W 014°38'  
Track history (hours):
 
Tides and Currents Weather Stations Pressure Air Temp Water Temp Dewpoint Dewpoint Depression Visibility Wind Speed Wind Dir Waves Ship Positions

Jpo Gemini

Last reported at 2017-Jan-19 03:33 UTC. Time now 2017-Jan-20 05:53 UTC.
Position N 35°56' W 005°47'.

Length 207 m; draft 10.8 m.

Type: Cargo ship. MMSI: 636091995.

Date/timePositionNaut miles runAvg speedWind from/ knotsBaromVisibWave heightAir tempDewpointWater temp
2017-Jan-19 03:33N 35°56' W 005°47'1717.1
2017-Jan-19 02:33N 36°00' W 005°27'9 0.3
2017-Jan-17 23:32N 36°09' W 005°26'1 0.7
2017-Jan-17 22:33N 36°09' W 005°25'2 2.1
2017-Jan-17 21:33N 36°10' W 005°23'0 0.0
2017-Jan-17 09:33N 36°10' W 005°23'0 0.0
2017-Jan-17 08:21N 36°10' W 005°23'0 0.0
2017-Jan-17 07:33N 36°10' W 005°23'0 0.0
2017-Jan-17 06:27N 36°10' W 005°23'0 0.1
2017-Jan-17 05:33N 36°10' W 005°23'0 0.0
2017-Jan-17 04:33N 36°10' W 005°23'0 0.0
2017-Jan-17 03:33N 36°10' W 005°23'0 0.1
2017-Jan-17 02:33N 36°10' W 005°23'0 0.0
2017-Jan-17 01:09N 36°10' W 005°23'0 0.1
2017-Jan-17 00:33N 36°10' W 005°23'0 0.0
2017-Jan-16 21:33N 36°10' W 005°23'0 0.0
2017-Jan-16 16:09N 36°10' W 005°23'  
2017-Jan-12 17:30N 35°55' W 005°35'1411.1
2017-Jan-12 16:14N 35°52' W 005°52'  
2017-Jan-10 11:16N 29°45' W 012°14'6 8.9
2017-Jan-10 10:33N 29°40' W 012°18'9 9.0
2017-Jan-10 09:33N 29°32' W 012°24'9 9.1
2017-Jan-10 08:32N 29°25' W 012°30'10 9.2
2017-Jan-10 07:24N 29°17' W 012°37'8 9.1
2017-Jan-10 06:30N 29°10' W 012°43'47 9.3
2017-Jan-10 01:28N 28°32' W 013°13'12 9.7
2017-Jan-10 00:14N 28°22' W 013°21'7 9.9
2017-Jan-09 23:32N 28°16' W 013°26'10 9.9
2017-Jan-09 22:33N 28°08' W 013°32'10 9.9
2017-Jan-09 21:34N 28°00' W 013°39'10 9.7
2017-Jan-09 20:33N 27°52' W 013°45'9 9.4
2017-Jan-09 19:34N 27°44' W 013°50'9 9.2
2017-Jan-09 18:33N 27°36' W 013°56'9 9.3
2017-Jan-09 17:33N 27°29' W 014°02'10 9.7
2017-Jan-09 16:32N 27°21' W 014°08'10 9.8
2017-Jan-09 15:33N 27°12' W 014°14'1010.0
2017-Jan-09 14:34N 27°04' W 014°20'1010.2
2017-Jan-09 13:33N 26°55' W 014°26'1110.3
2017-Jan-09 12:31N 26°46' W 014°32'1010.2
2017-Jan-09 11:33N 26°38' W 014°38'  

Dump ship's entire track history